KSBA/SBA METAR and TAF weather

Enter ICAO airport designator
Station Type Date Time Source
KSBA METAR 2021/04/13 22:53 UTC NOAA

KSBA 132253Z 26012KT 6SM HZ OVC033 17/08 A2989 RMK AO2 SLP122 T01670083


Station Type Date Time Source
KSBA Decoded METAR 2021/04/13 22:53 UTC NOAA

SANTA BARBARA MUNICIPAL, CA, United States (KSBA) 34-26N 119-51W 3M
Apr 13, 2021 - 06:53 PM EDT / 2021.04.13 2253 UTC
Wind: from the W (260 degrees) at 14 MPH (12 KT):0
Visibility: 6 mile(s):0
Sky conditions: overcast
Weather: haze
Temperature: 62.1 F (16.7 C)
Dew Point: 46.9 F (8.3 C)
Relative Humidity: 57%
Pressure (altimeter): 29.89 in. Hg (1012 hPa)
ob: KSBA 132253Z 26012KT 6SM HZ OVC033 17/08 A2989 RMK AO2 SLP122 T01670083
cycle: 23

Station Type Date Time Source
KSBA TAF 2021/04/13 18:39 UTC NOAA

TAF KSBA 131736Z 1318/1418 24009KT 6SM HZ SCT023 BKN035
FM132300 26015G22KT P6SM SCT030
FM140300 30008KT P6SM SKC
FM140600 VRB03KT P6SM BKN020
FM141500 14006KT P6SM BKN035

Example: see airport list